Winsted, Minnesota
Current Conditions -  °F | °C
As of 4:33 PM on Saturday 25 Oct 2014 (Local Time) from KGYL Reporting Station
Clear Clear  
Wind Chill: 63°   Ceiling: Unl
Heat Index: 63°   Visibility: 10mi
Dew Point: 29°   Wind: 14mph
Humidity: 28%   Direction: 310°NW
Pressure: 30.06"   Gusts: NA
Location:  44.96°N, 94.05°W
Report Text: KGYL 252133Z AUTO 31012KT 10SM CLR 17/M01 A3006 RMK AO2 T01731015
Loading
Personal Weather Stations






























Interactive Weather Map
Tropical Storm Tracking
New forecast layout! Learn more

10-Day Weather Forecast

Advertisements
Track Severe Weather on mobile